Time;durP1;ratioP1;P1;durP2;ratioP2;P2;SDS_P1;SDS_P2;PMS_P1;PMS_P2;Temp;Humidity;BMP_temperature;BMP_pressure;BME280_temperature;BME280_humidity;BME280_pressure;Samples;Min_cycle;Max_cycle;Signal;HPM_P1;HPM_P2
2022/07/09 00:01:29;;;;;;;3.00;2.70;;;16.60;99.90;;;;;;5092310;28;20824;-45
2022/07/09 00:03:56;;;;;;;3.53;3.23;;;16.60;99.90;;;;;;5092419;28;20471;-52
2022/07/09 00:06:23;;;;;;;3.30;2.87;;;16.60;99.90;;;;;;5092337;28;20440;-46
2022/07/09 00:08:50;;;;;;;2.97;2.73;;;16.60;99.90;;;;;;5091643;28;20499;-45
2022/07/09 00:11:17;;;;;;;3.50;3.00;;;16.60;99.90;;;;;;5092144;28;20521;-46
2022/07/09 00:13:44;;;;;;;5.30;2.63;;;16.60;99.90;;;;;;5091908;28;20468;-47
2022/07/09 00:16:12;;;;;;;3.00;2.70;;;16.60;99.90;;;;;;5091983;28;20997;-48
2022/07/09 00:18:39;;;;;;;3.27;2.60;;;16.70;99.90;;;;;;5092329;28;20497;-54
2022/07/09 00:21:06;;;;;;;4.33;2.80;;;16.70;99.90;;;;;;5091862;28;20927;-45
2022/07/09 00:23:34;;;;;;;4.23;3.30;;;16.70;99.90;;;;;;5091819;28;21021;-48
2022/07/09 00:26:01;;;;;;;3.20;2.90;;;16.60;99.90;;;;;;5091221;28;20891;-47
2022/07/09 00:28:28;;;;;;;3.13;2.30;;;16.50;99.90;;;;;;5091005;28;20480;-47
2022/07/09 00:30:55;;;;;;;3.17;2.87;;;16.60;99.90;;;;;;5091214;28;20451;-47
2022/07/09 00:33:23;;;;;;;4.03;3.03;;;16.50;99.90;;;;;;5091647;28;20513;-50
2022/07/09 00:35:50;;;;;;;3.50;3.20;;;16.40;99.90;;;;;;5091589;28;20448;-50
2022/07/09 00:38:17;;;;;;;3.70;2.80;;;16.50;99.90;;;;;;5091610;28;20925;-46
2022/07/09 00:40:44;;;;;;;2.60;2.40;;;16.50;99.90;;;;;;5091159;28;20648;-46
2022/07/09 00:43:18;;;;;;;3.43;3.13;;;16.60;99.90;;;;;;5091607;28;20459;-45
2022/07/09 00:45:45;;;;;;;2.90;2.70;;;16.60;99.90;;;;;;5091485;28;20444;-47
2022/07/09 00:48:13;;;;;;;3.03;2.73;;;16.60;99.90;;;;;;5091197;28;21032;-45
2022/07/09 00:50:42;;;;;;;3.67;3.07;;;16.60;99.90;;;;;;5090972;28;20512;-46
2022/07/09 00:53:11;;;;;;;3.77;3.40;;;16.60;99.90;;;;;;5090925;28;20903;-48
2022/07/09 00:55:39;;;;;;;2.80;2.60;;;16.50;99.90;;;;;;5091041;28;20857;-46
2022/07/09 00:58:06;;;;;;;3.17;2.90;;;16.10;99.90;;;;;;5091234;28;20452;-47
2022/07/09 01:00:35;;;;;;;3.70;3.40;;;15.70;99.90;;;;;;5090830;28;20468;-47
2022/07/09 01:03:02;;;;;;;4.10;3.30;;;15.80;99.90;;;;;;5091086;28;20440;-51
2022/07/09 01:05:35;;;;;;;3.63;3.33;;;15.90;99.90;;;;;;5091061;28;20456;-47
2022/07/09 01:08:05;;;;;;;3.80;3.43;;;16.00;99.90;;;;;;5090941;28;20478;-46
2022/07/09 01:10:33;;;;;;;4.17;3.47;;;16.10;99.90;;;;;;5090829;28;20538;-45
2022/07/09 01:13:00;;;;;;;3.40;2.90;;;16.20;99.90;;;;;;5090974;28;20439;-47
2022/07/09 01:15:27;;;;;;;3.83;3.10;;;16.00;99.90;;;;;;5090859;28;20520;-48
2022/07/09 01:17:55;;;;;;;3.27;2.97;;;16.00;99.90;;;;;;5090724;28;20448;-46
2022/07/09 01:20:25;;;;;;;3.00;2.40;;;16.10;99.90;;;;;;5090399;28;20428;-45
2022/07/09 01:22:52;;;;;;;3.27;3.07;;;16.20;99.90;;;;;;5090624;28;20939;-48
2022/07/09 01:25:20;;;;;;;4.20;2.90;;;16.20;99.90;;;;;;5090480;28;20447;-45
2022/07/09 01:27:47;;;;;;;4.47;3.00;;;16.30;99.90;;;;;;5090645;28;21047;-46
2022/07/09 01:30:24;;;;;;;3.93;2.90;;;16.30;99.90;;;;;;5090362;28;20508;-46
2022/07/09 01:32:52;;;;;;;3.57;2.90;;;16.30;99.90;;;;;;5090575;28;20455;-48
2022/07/09 01:35:19;;;;;;;3.70;2.60;;;16.20;99.90;;;;;;5090381;28;20435;-47
2022/07/09 01:37:47;;;;;;;3.57;2.33;;;16.20;99.90;;;;;;5090449;28;20446;-50
2022/07/09 01:40:15;;;;;;;3.10;2.50;;;16.10;99.90;;;;;;5089982;28;20447;-48
2022/07/09 01:42:42;;;;;;;3.33;2.80;;;15.90;99.90;;;;;;5090379;28;20956;-45
2022/07/09 01:45:09;;;;;;;2.87;2.50;;;15.60;99.90;;;;;;5090164;28;20471;-47
2022/07/09 01:47:36;;;;;;;2.67;2.47;;;15.50;99.90;;;;;;5090065;28;20479;-46
2022/07/09 01:50:04;;;;;;;2.60;2.40;;;15.50;99.90;;;;;;5090137;28;20489;-46
2022/07/09 01:52:31;;;;;;;5.17;2.63;;;15.50;99.90;;;;;;5090382;28;20447;-50
2022/07/09 01:54:59;;;;;;;3.23;2.70;;;15.60;99.90;;;;;;5089454;28;20451;-47
2022/07/09 01:57:27;;;;;;;3.47;2.80;;;15.50;99.90;;;;;;5090044;28;20940;-47
2022/07/09 01:59:54;;;;;;;5.33;2.20;;;15.60;99.90;;;;;;5089874;28;21004;-47
2022/07/09 02:02:21;;;;;;;2.60;2.40;;;15.60;99.90;;;;;;5090041;28;20444;-46
2022/07/09 02:04:48;;;;;;;4.53;2.83;;;15.70;99.90;;;;;;5089867;28;20468;-49
2022/07/09 02:07:15;;;;;;;4.60;2.63;;;15.70;99.90;;;;;;5089833;28;20443;-45
2022/07/09 02:09:43;;;;;;;5.27;3.47;;;15.70;99.90;;;;;;5089953;28;20427;-45
2022/07/09 02:12:11;;;;;;;2.73;2.53;;;15.60;99.90;;;;;;5089797;28;21104;-46
2022/07/09 02:14:38;;;;;;;2.70;2.50;;;15.60;99.90;;;;;;5089650;28;20448;-52
2022/07/09 02:17:06;;;;;;;3.63;2.67;;;15.60;99.90;;;;;;5089868;28;20450;-45
2022/07/09 02:19:33;;;;;;;2.83;2.53;;;15.30;99.90;;;;;;5089510;28;20447;-47
2022/07/09 02:22:00;;;;;;;3.93;2.93;;;15.30;99.90;;;;;;5089516;28;20505;-47
2022/07/09 02:24:28;;;;;;;3.00;2.70;;;15.30;99.90;;;;;;5089583;28;20447;-47
2022/07/09 02:26:55;;;;;;;4.03;2.80;;;15.30;99.90;;;;;;5089358;28;20428;-48
2022/07/09 02:29:23;;;;;;;3.00;2.50;;;15.30;99.90;;;;;;5089187;28;20525;-45
2022/07/09 02:31:50;;;;;;;3.73;2.70;;;15.40;99.90;;;;;;5089430;28;20436;-45
2022/07/09 02:34:17;;;;;;;4.17;3.00;;;15.50;99.90;;;;;;5089595;28;20463;-51
2022/07/09 02:36:44;;;;;;;2.80;2.60;;;15.50;99.90;;;;;;5089614;28;20443;-45
2022/07/09 02:39:11;;;;;;;2.70;2.43;;;15.60;99.90;;;;;;5089315;28;20444;-46
2022/07/09 02:41:38;;;;;;;4.20;2.37;;;15.60;99.90;;;;;;5089520;28;20448;-45
2022/07/09 02:44:05;;;;;;;4.57;2.57;;;15.50;99.90;;;;;;5089189;28;20471;-48
2022/07/09 02:46:34;;;;;;;3.10;2.80;;;15.50;99.90;;;;;;5089416;28;20478;-46
2022/07/09 02:49:01;;;;;;;3.80;2.67;;;15.40;99.90;;;;;;5089012;28;20492;-46
2022/07/09 02:51:28;;;;;;;5.30;2.60;;;15.30;99.90;;;;;;5089363;28;20962;-45
2022/07/09 02:53:55;;;;;;;2.73;2.17;;;15.30;99.90;;;;;;5092928;28;20544;-46
2022/07/09 02:56:22;;;;;;;2.73;2.53;;;15.30;99.90;;;;;;5093250;28;20450;-45
2022/07/09 02:58:49;;;;;;;3.70;3.33;;;15.30;99.90;;;;;;5093242;28;20437;-50
2022/07/09 03:01:16;;;;;;;2.70;2.50;;;15.30;99.90;;;;;;5093390;28;20475;-46
2022/07/09 03:03:44;;;;;;;3.70;2.50;;;15.40;99.90;;;;;;5093349;28;21022;-47
2022/07/09 03:06:12;;;;;;;3.20;3.00;;;15.40;99.90;;;;;;5093371;28;20496;-50
2022/07/09 03:08:39;;;;;;;3.20;2.90;;;15.10;99.90;;;;;;5093104;28;20468;-45
2022/07/09 03:11:07;;;;;;;3.13;2.83;;;14.90;99.90;;;;;;5093251;28;20444;-48
2022/07/09 03:13:34;;;;;;;5.83;3.00;;;14.90;99.90;;;;;;5093013;28;20500;-49
2022/07/09 03:16:01;;;;;;;3.83;3.13;;;15.00;99.90;;;;;;5093176;28;20451;-45
2022/07/09 03:18:28;;;;;;;3.27;2.77;;;15.00;99.90;;;;;;5093022;28;20497;-46
2022/07/09 03:20:56;;;;;;;3.33;2.43;;;15.10;99.90;;;;;;5092963;28;20446;-45
2022/07/09 03:23:23;;;;;;;3.07;2.87;;;14.90;99.90;;;;;;5093035;28;20502;-45
2022/07/09 03:25:50;;;;;;;5.03;2.30;;;14.90;99.90;;;;;;5092802;28;20501;-46
2022/07/09 03:28:17;;;;;;;3.33;2.77;;;15.00;99.90;;;;;;5092924;28;20470;-45
2022/07/09 03:30:45;;;;;;;4.27;2.80;;;15.10;99.90;;;;;;5093144;28;20741;-48
2022/07/09 03:33:12;;;;;;;3.70;2.77;;;15.10;99.90;;;;;;5092762;28;20459;-45
2022/07/09 03:35:39;;;;;;;3.00;2.63;;;15.10;99.90;;;;;;5092782;28;20475;-49
2022/07/09 03:38:08;;;;;;;3.30;2.70;;;15.10;99.90;;;;;;5092803;28;20444;-45
2022/07/09 03:40:35;;;;;;;3.07;2.30;;;15.10;99.90;;;;;;5092584;28;20512;-45
2022/07/09 03:43:02;;;;;;;4.03;2.87;;;15.10;99.90;;;;;;5092475;28;20546;-48
2022/07/09 03:45:29;;;;;;;3.20;2.67;;;15.00;99.90;;;;;;5149496;22;20495;-48
2022/07/09 03:47:56;;;;;;;3.23;2.60;;;15.00;99.90;;;;;;5092459;28;20439;-50
2022/07/09 03:50:23;;;;;;;3.20;2.60;;;15.00;99.90;;;;;;5092446;28;20447;-47
2022/07/09 03:52:50;;;;;;;3.10;2.77;;;15.10;99.90;;;;;;5092459;28;20504;-52
2022/07/09 03:55:19;;;;;;;2.63;2.43;;;15.10;99.90;;;;;;5092056;28;20471;-47
2022/07/09 03:57:46;;;;;;;2.90;2.30;;;15.10;99.90;;;;;;5092406;28;20477;-47
2022/07/09 04:00:13;;;;;;;3.23;2.43;;;15.10;99.90;;;;;;5092100;28;20451;-50
2022/07/09 04:02:40;;;;;;;2.97;2.60;;;15.10;99.90;;;;;;5092690;28;20538;-49
2022/07/09 04:05:09;;;;;;;4.90;2.90;;;15.10;99.90;;;;;;5090752;28;20475;-50
2022/07/09 04:07:36;;;;;;;3.40;3.00;;;15.10;99.90;;;;;;5092078;28;20447;-48
2022/07/09 04:10:04;;;;;;;4.23;2.60;;;15.10;99.90;;;;;;5091473;28;20505;-47
2022/07/09 04:12:32;;;;;;;3.67;2.50;;;15.10;99.90;;;;;;5092404;28;20424;-47
2022/07/09 04:14:59;;;;;;;4.10;2.80;;;15.10;99.90;;;;;;5092229;28;21154;-47
2022/07/09 04:17:26;;;;;;;3.10;2.77;;;15.10;99.90;;;;;;5092032;28;20622;-47
2022/07/09 04:19:53;;;;;;;2.53;2.33;;;15.20;99.90;;;;;;5091687;28;20440;-47
2022/07/09 04:22:20;;;;;;;2.93;2.70;;;15.20;99.90;;;;;;5091924;28;20496;-48
2022/07/09 04:24:47;;;;;;;2.50;2.30;;;15.10;99.90;;;;;;5091756;28;20526;-48
2022/07/09 04:27:14;;;;;;;4.20;3.07;;;15.10;99.90;;;;;;5091622;28;20428;-47
2022/07/09 04:29:43;;;;;;;3.03;2.73;;;15.00;99.90;;;;;;5091188;28;21011;-49
2022/07/09 04:32:10;;;;;;;3.90;3.30;;;15.00;99.90;;;;;;5091622;28;20432;-49
2022/07/09 04:34:37;;;;;;;2.80;2.57;;;15.00;99.90;;;;;;5091433;28;20469;-49
2022/07/09 04:37:04;;;;;;;5.10;2.97;;;14.90;99.90;;;;;;5091677;28;20497;-50
2022/07/09 04:39:32;;;;;;;3.33;2.97;;;14.90;99.90;;;;;;5091071;28;20507;-49
2022/07/09 04:41:59;;;;;;;3.60;2.67;;;14.90;99.90;;;;;;5091376;28;20438;-51
2022/07/09 04:44:26;;;;;;;3.37;3.07;;;14.70;99.90;;;;;;5091229;28;20537;-49
2022/07/09 04:46:55;;;;;;;2.80;2.60;;;14.70;99.90;;;;;;5091492;28;20444;-47
2022/07/09 04:49:24;;;;;;;5.80;2.90;;;14.80;99.90;;;;;;5090964;28;20706;-50
2022/07/09 04:51:51;;;;;;;2.90;2.70;;;14.90;99.90;;;;;;5091092;28;20815;-48
2022/07/09 04:54:18;;;;;;;3.13;2.90;;;14.80;99.90;;;;;;5091191;28;20524;-48
2022/07/09 04:56:45;;;;;;;3.53;2.90;;;14.70;99.90;;;;;;5090835;28;20432;-47
2022/07/09 04:59:12;;;;;;;3.60;3.17;;;14.80;99.90;;;;;;5090827;28;20447;-47
2022/07/09 05:01:39;;;;;;;5.70;3.20;;;14.80;99.90;;;;;;5091161;28;20448;-50
2022/07/09 05:04:07;;;;;;;3.60;3.10;;;14.80;99.90;;;;;;5091046;28;20530;-47
2022/07/09 05:06:34;;;;;;;4.33;3.37;;;14.70;99.90;;;;;;5091041;28;20515;-47
2022/07/09 05:09:01;;;;;;;3.23;2.97;;;14.70;99.90;;;;;;5090980;28;20608;-50
2022/07/09 05:11:28;;;;;;;3.53;3.23;;;14.60;99.90;;;;;;5090751;28;20480;-47
2022/07/09 05:13:55;;;;;;;4.07;3.50;;;14.70;99.90;;;;;;5090760;28;20522;-52
2022/07/09 05:16:22;;;;;;;5.70;3.10;;;14.80;99.90;;;;;;5090504;28;20987;-47
2022/07/09 05:18:49;;;;;;;3.57;3.23;;;14.90;99.90;;;;;;5090519;28;20448;-48
2022/07/09 05:21:18;;;;;;;3.67;3.37;;;15.00;99.90;;;;;;5090480;28;20897;-48
2022/07/09 05:23:44;;;;;;;3.10;2.80;;;15.10;99.90;;;;;;5090619;28;20530;-48
2022/07/09 05:26:12;;;;;;;4.53;3.33;;;15.20;99.90;;;;;;5090441;28;20444;-47
2022/07/09 05:28:39;;;;;;;3.90;3.43;;;15.20;99.90;;;;;;5090308;28;20471;-48
2022/07/09 05:31:07;;;;;;;6.53;4.30;;;15.10;99.90;;;;;;5090248;28;21173;-48
2022/07/09 05:33:34;;;;;;;4.50;4.10;;;15.00;99.90;;;;;;5090487;28;20526;-48
2022/07/09 05:36:01;;;;;;;2.97;2.63;;;15.00;99.90;;;;;;5090449;28;20936;-49
2022/07/09 05:38:29;;;;;;;3.30;3.10;;;14.90;99.90;;;;;;5090054;28;20834;-49
2022/07/09 05:40:57;;;;;;;3.80;3.50;;;15.10;99.90;;;;;;5090132;28;20529;-47
2022/07/09 05:43:24;;;;;;;3.40;2.90;;;15.20;99.90;;;;;;5090088;28;20438;-47
2022/07/09 05:45:51;;;;;;;4.07;3.77;;;15.30;99.90;;;;;;5090151;28;20512;-48
2022/07/09 05:48:18;;;;;;;5.33;3.93;;;15.40;99.90;;;;;;5090122;28;20443;-49
2022/07/09 05:50:45;;;;;;;4.10;3.70;;;15.50;99.90;;;;;;5089762;28;20471;-47
2022/07/09 05:53:12;;;;;;;4.30;3.90;;;15.60;99.90;;;;;;5090386;28;20444;-50
2022/07/09 05:55:40;;;;;;;7.77;4.40;;;15.60;99.90;;;;;;5089745;28;20524;-47
2022/07/09 05:58:07;;;;;;;7.07;3.60;;;15.70;99.90;;;;;;5090069;28;20782;-47
2022/07/09 06:00:34;;;;;;;6.80;4.10;;;15.70;99.90;;;;;;5089758;28;20451;-48
2022/07/09 06:03:01;;;;;;;4.37;3.97;;;15.70;99.90;;;;;;5089798;28;20435;-48
2022/07/09 06:05:28;;;;;;;6.57;4.20;;;15.70;99.90;;;;;;5087560;28;20459;-51
2022/07/09 06:07:55;;;;;;;7.63;4.37;;;15.70;99.90;;;;;;5091290;28;20517;-47
2022/07/09 06:10:23;;;;;;;4.50;3.70;;;15.70;99.90;;;;;;5101184;28;20466;-48
2022/07/09 06:12:51;;;;;;;4.93;3.60;;;15.70;99.90;;;;;;5091761;28;20462;-47
2022/07/09 06:15:18;;;;;;;6.07;3.83;;;15.70;99.90;;;;;;5090340;28;20798;-48
2022/07/09 06:17:45;;;;;;;4.37;4.07;;;15.80;99.90;;;;;;5090532;28;20473;-47
2022/07/09 06:20:12;;;;;;;4.40;3.87;;;15.70;99.90;;;;;;5097816;28;20435;-47
2022/07/09 06:22:39;;;;;;;10.60;3.77;;;15.50;99.90;;;;;;5097794;28;20443;-48
2022/07/09 06:25:07;;;;;;;5.30;3.80;;;15.50;99.90;;;;;;5103346;28;20927;-47
2022/07/09 06:27:34;;;;;;;4.13;3.83;;;15.40;99.90;;;;;;5109018;28;20445;-48
2022/07/09 06:30:03;;;;;;;5.73;4.20;;;15.10;99.90;;;;;;5109566;28;20470;-47
2022/07/09 06:32:30;;;;;;;4.90;3.60;;;15.20;99.90;;;;;;5098147;28;20811;-47
2022/07/09 06:34:56;;;;;;;4.10;3.70;;;15.10;99.90;;;;;;5095653;28;21011;-48
2022/07/09 06:37:23;;;;;;;3.90;3.60;;;15.00;99.90;;;;;;5101223;28;20496;-47
2022/07/09 06:39:55;;;;;;;4.30;3.90;;;14.90;99.90;;;;;;5108653;28;20443;-50
2022/07/09 06:42:22;;;;;;;4.95;3.83;;;14.90;99.90;;;;;;5109889;28;20439;-47
2022/07/09 06:44:49;;;;;;;3.70;3.40;;;15.00;99.90;;;;;;5109504;28;20220;-48
2022/07/09 06:47:18;;;;;;;5.33;4.03;;;15.20;99.90;;;;;;5109913;28;20451;-47
2022/07/09 06:49:46;;;;;;;4.50;3.83;;;15.20;99.90;;;;;;5108753;28;20450;-46
2022/07/09 06:52:13;;;;;;;5.83;4.43;;;15.30;99.90;;;;;;5103076;28;20267;-48
2022/07/09 06:54:40;;;;;;;4.20;3.80;;;15.40;99.90;;;;;;5097969;28;20516;-47
2022/07/09 06:57:09;;;;;;;7.17;4.60;;;15.30;99.90;;;;;;5089100;28;20435;-47
2022/07/09 06:59:36;;;;;;;4.67;3.67;;;15.40;99.90;;;;;;5089017;28;20877;-49
2022/07/09 07:02:03;;;;;;;4.72;3.67;;;15.60;99.90;;;;;;5088676;28;20933;-47
2022/07/09 07:04:31;;;;;;;4.93;3.93;;;15.60;99.90;;;;;;5088680;28;20432;-50
2022/07/09 07:06:58;;;;;;;26.50;7.17;;;15.50;99.90;;;;;;5089401;28;20497;-48
2022/07/09 07:09:25;;;;;;;4.03;3.63;;;15.60;99.90;;;;;;5088528;28;20475;-48
2022/07/09 07:11:52;;;;;;;3.63;3.23;;;15.60;99.90;;;;;;5088913;28;20438;-51
2022/07/09 07:14:19;;;;;;;4.80;3.57;;;15.70;99.90;;;;;;5089190;28;20447;-49
2022/07/09 07:16:46;;;;;;;5.07;3.47;;;15.80;99.90;;;;;;5088876;28;20431;-47
2022/07/09 07:19:13;;;;;;;4.93;3.83;;;15.90;99.90;;;;;;5088881;28;20471;-48
2022/07/09 07:21:42;;;;;;;4.17;3.73;;;15.90;99.90;;;;;;5088819;28;20488;-47
2022/07/09 07:24:09;;;;;;;3.23;2.97;;;15.90;99.90;;;;;;5086952;28;20471;-47
2022/07/09 07:26:36;;;;;;;4.20;3.80;;;16.00;99.90;;;;;;5068703;28;20458;-47
2022/07/09 07:29:04;;;;;;;4.37;2.70;;;16.00;99.90;;;;;;5068463;28;20513;-47
2022/07/09 07:31:31;;;;;;;3.87;3.03;;;16.10;99.90;;;;;;5079222;28;20452;-46
2022/07/09 07:33:59;;;;;;;6.83;3.53;;;16.10;99.90;;;;;;5088822;28;20971;-51
2022/07/09 07:36:26;;;;;;;4.10;3.70;;;16.10;99.90;;;;;;5088645;28;20435;-52
2022/07/09 07:38:54;;;;;;;4.17;3.43;;;16.10;99.90;;;;;;5083953;28;20546;-47
2022/07/09 07:41:21;;;;;;;3.57;3.23;;;16.10;99.90;;;;;;5072199;28;20447;-47
2022/07/09 07:43:49;;;;;;;4.00;3.30;;;16.10;99.90;;;;;;5071201;28;20437;-50
2022/07/09 07:46:16;;;;;;;3.90;3.50;;;16.30;99.90;;;;;;5071547;28;20507;-47
2022/07/09 07:48:43;;;;;;;5.00;2.97;;;16.40;99.90;;;;;;5082108;28;20206;-50
2022/07/09 07:51:10;;;;;;;4.68;3.70;;;16.40;99.90;;;;;;5091797;28;20575;-47
2022/07/09 07:53:38;;;;;;;3.90;3.60;;;16.40;99.90;;;;;;5091906;28;20434;-49
2022/07/09 07:56:08;;;;;;;6.53;3.53;;;16.40;99.90;;;;;;5079466;28;20275;-49
2022/07/09 07:58:36;;;;;;;5.50;3.70;;;16.50;99.90;;;;;;5074091;28;20519;-49
2022/07/09 08:01:03;;;;;;;4.07;3.67;;;16.50;99.90;;;;;;5092051;28;20535;-47
2022/07/09 08:03:30;;;;;;;4.00;3.47;;;16.60;99.90;;;;;;5092156;28;20492;-47
2022/07/09 08:05:57;;;;;;;3.90;2.80;;;16.40;99.90;;;;;;5091962;28;20456;-47
2022/07/09 08:08:24;;;;;;;11.83;3.87;;;16.50;99.90;;;;;;5092012;28;20459;-47
2022/07/09 08:10:51;;;;;;;4.00;3.60;;;16.50;99.90;;;;;;5072807;28;20864;-47
2022/07/09 08:13:20;;;;;;;7.87;3.70;;;16.70;99.90;;;;;;5071484;28;20436;-48
2022/07/09 08:15:47;;;;;;;10.73;4.37;;;16.80;99.90;;;;;;5071349;28;20518;-47
2022/07/09 08:18:14;;;;;;;8.57;3.37;;;16.90;99.90;;;;;;5090378;28;20431;-47
2022/07/09 08:20:42;;;;;;;5.47;4.13;;;17.00;99.90;;;;;;5079583;28;20444;-47
2022/07/09 08:23:09;;;;;;;12.07;4.70;;;16.90;99.90;;;;;;5070881;28;20450;-52
2022/07/09 08:25:37;;;;;;;5.15;4.00;;;16.80;99.90;;;;;;5076611;28;20514;-48
2022/07/09 08:28:04;;;;;;;8.35;4.07;;;16.70;99.90;;;;;;5091024;28;21004;-49
2022/07/09 08:30:33;;;;;;;5.97;3.57;;;16.90;99.90;;;;;;5091127;28;20243;-49
2022/07/09 08:33:00;;;;;;;31.57;7.70;;;17.00;99.90;;;;;;5091297;28;20826;-49
2022/07/09 08:35:27;;;;;;;6.17;4.10;;;17.10;99.90;;;;;;5071674;28;20902;-47
2022/07/09 08:37:55;;;;;;;4.83;2.93;;;17.10;99.90;;;;;;5071431;28;20459;-47
2022/07/09 08:40:22;;;;;;;25.17;5.70;;;17.10;99.90;;;;;;5088589;28;20451;-48
2022/07/09 08:42:50;;;;;;;31.80;7.30;;;17.10;99.90;;;;;;5084821;28;20494;-47
2022/07/09 08:45:19;;;;;;;7.83;3.60;;;17.30;99.90;;;;;;5071074;28;20530;-47
2022/07/09 08:47:48;;;;;;;10.73;4.80;;;17.40;99.90;;;;;;5071004;28;20429;-47
2022/07/09 08:50:15;;;;;;;9.45;4.40;;;17.50;99.90;;;;;;5069654;28;20819;-51
2022/07/09 08:52:43;;;;;;;9.03;4.40;;;17.50;99.90;;;;;;5072417;28;20658;-48
2022/07/09 08:55:10;;;;;;;3.80;3.33;;;17.70;99.90;;;;;;5090999;28;20572;-47
2022/07/09 08:57:38;;;;;;;4.73;4.33;;;17.60;99.90;;;;;;5079823;28;20448;-47
2022/07/09 09:00:06;;;;;;;25.87;6.73;;;17.30;99.90;;;;;;5070770;28;20443;-47
2022/07/09 09:02:37;;;;;;;45.25;8.55;;;17.50;99.90;;;;;;5068246;28;20426;-50
2022/07/09 09:05:11;;;;;;;28.03;8.40;;;17.70;99.90;;;;;;5070726;28;20319;-47
2022/07/09 09:07:38;;;;;;;33.70;8.30;;;17.90;99.90;;;;;;5089044;28;20878;-48
2022/07/09 09:10:06;;;;;;;60.03;11.00;;;17.90;99.90;;;;;;5089519;28;20536;-47
2022/07/09 09:12:33;;;;;;;271.55;34.35;;;17.80;99.90;;;;;;5070131;28;20434;-47
2022/07/09 09:15:05;;;;;;;8.20;4.03;;;17.80;99.90;;;;;;5079569;28;20248;-47
2022/07/09 09:17:32;;;;;;;5.93;3.55;;;17.90;99.90;;;;;;5090520;28;20535;-47
2022/07/09 09:19:59;;;;;;;20.83;5.17;;;17.90;99.90;;;;;;5083156;28;20199;-48
2022/07/09 09:22:27;;;;;;;6.25;4.20;;;18.10;99.90;;;;;;5079454;28;20437;-47
2022/07/09 09:24:54;;;;;;;3.70;3.40;;;18.10;99.90;;;;;;5090847;28;20225;-47
2022/07/09 09:27:30;;;;;;;8.07;3.78;;;18.10;99.90;;;;;;5089774;28;20441;-48
2022/07/09 09:30:00;;;;;;;7.77;3.93;;;18.30;99.90;;;;;;5090053;28;20732;-50
2022/07/09 09:32:27;;;;;;;15.93;5.00;;;18.40;99.90;;;;;;5080677;28;20428;-50
2022/07/09 09:34:54;;;;;;;5.07;4.10;;;18.60;99.90;;;;;;5070034;28;20515;-48
2022/07/09 09:37:31;;;;;;;5.40;3.67;;;18.30;99.90;;;;;;5085890;28;20473;-48
2022/07/09 09:39:58;;;;;;;4.60;3.50;;;18.10;99.90;;;;;;5074773;28;20476;-49
2022/07/09 09:42:26;;;;;;;4.57;3.27;;;18.20;99.90;;;;;;5070036;28;20712;-48
2022/07/09 09:44:55;;;;;;;4.00;3.70;;;18.20;99.90;;;;;;5091545;22;1197895;-46
2022/07/09 09:47:25;;;;;;;7.00;4.63;;;18.40;99.90;;;;;;5090358;28;20489;-49
2022/07/09 09:49:54;;;;;;;3.67;3.37;;;18.50;99.90;;;;;;5089904;28;20435;-48
2022/07/09 09:52:21;;;;;;;7.30;3.70;;;18.60;99.90;;;;;;5089958;28;21037;-46
2022/07/09 09:54:51;;;;;;;5.53;4.10;;;18.60;99.90;;;;;;5083414;28;20444;-51
2022/07/09 09:57:19;;;;;;;4.37;3.67;;;18.70;99.90;;;;;;5090128;28;20470;-51
2022/07/09 09:59:47;;;;;;;9.60;3.70;;;18.60;99.90;;;;;;5089763;28;20522;-47
2022/07/09 10:02:14;;;;;;;4.37;3.90;;;18.70;99.90;;;;;;5089864;28;20435;-46
2022/07/09 10:04:43;;;;;;;6.90;3.67;;;18.50;99.90;;;;;;5089646;28;20521;-49
2022/07/09 10:07:13;;;;;;;4.63;3.80;;;18.80;99.90;;;;;;5089857;28;20534;-46
2022/07/09 10:09:40;;;;;;;5.00;3.77;;;19.00;99.90;;;;;;5089587;28;20505;-47
2022/07/09 10:12:10;;;;;;;6.10;3.30;;;19.00;99.90;;;;;;5081393;28;20980;-46
2022/07/09 10:14:39;;;;;;;7.38;3.92;;;19.10;99.90;;;;;;5086213;28;20547;-43
2022/07/09 10:17:14;;;;;;;7.30;3.63;;;19.00;99.90;;;;;;5079064;28;20198;-48
2022/07/09 10:19:53;;;;;;;7.10;3.83;;;18.90;99.90;;;;;;5069587;28;20874;-46
2022/07/09 10:22:20;;;;;;;8.70;3.53;;;18.90;99.90;;;;;;5069193;28;20452;-45
2022/07/09 10:24:50;;;;;;;4.80;3.33;;;19.20;99.90;;;;;;5070131;28;20494;-46
2022/07/09 10:27:19;;;;;;;6.68;3.65;;;19.20;99.90;;;;;;5069478;28;21145;-48
2022/07/09 10:29:56;;;;;;;4.20;3.80;;;19.30;99.90;;;;;;5069728;28;20686;-47
2022/07/09 10:32:27;;;;;;;11.15;3.40;;;19.30;99.90;;;;;;5068839;28;20495;-47
2022/07/09 10:34:59;;;;;;;9.98;3.63;;;19.30;99.90;;;;;;5069209;28;20438;-45
2022/07/09 10:37:34;;;;;;;4.93;2.90;;;19.30;99.90;;;;;;5073452;28;20197;-46
2022/07/09 10:40:20;;;;;;;4.07;2.90;;;19.30;99.90;;;;;;5088844;28;20441;-50
2022/07/09 10:43:03;;;;;;;3.67;3.37;;;19.10;99.90;;;;;;5084582;28;20319;-48
2022/07/09 10:45:37;;;;;;;2.83;2.63;;;19.00;99.90;;;;;;5078637;28;20471;-47
2022/07/09 10:48:06;;;;;;;4.40;3.00;;;19.00;99.90;;;;;;5078606;28;20466;-51
2022/07/09 10:50:36;;;;;;;5.17;3.23;;;19.00;99.90;;;;;;5089594;28;20468;-46
2022/07/09 10:53:03;;;;;;;6.90;3.40;;;19.20;99.90;;;;;;5090005;28;20439;-47
2022/07/09 10:55:31;;;;;;;2.40;2.20;;;19.40;99.90;;;;;;5089665;28;20566;-48
2022/07/09 10:57:59;;;;;;;4.87;2.33;;;19.50;99.90;;;;;;5089657;28;20436;-45
2022/07/09 11:00:28;;;;;;;3.10;1.70;;;19.40;99.90;;;;;;5077291;28;20502;-50
2022/07/09 11:02:56;;;;;;;3.77;1.70;;;19.30;99.90;;;;;;5068044;28;20821;-48
2022/07/09 11:05:24;;;;;;;2.80;1.50;;;19.30;99.90;;;;;;5071683;28;20441;-46
2022/07/09 11:08:13;;;;;;;3.00;2.13;;;19.30;99.90;;;;;;5074334;28;20198;-47
2022/07/09 11:10:40;;;;;;;12.70;3.30;;;19.30;99.90;;;;;;5083106;28;20456;-46
2022/07/09 11:13:09;;;;;;;9.10;3.30;;;19.20;99.90;;;;;;5090065;28;20455;-50
2022/07/09 11:15:38;;;;;;;5.53;2.47;;;19.20;99.90;;;;;;5093631;28;20566;-47
2022/07/09 11:18:06;;;;;;;4.20;2.77;;;19.30;99.90;;;;;;5090320;28;20475;-46
2022/07/09 11:20:38;;;;;;;2.90;2.30;;;19.40;99.90;;;;;;5093436;28;20435;-46
2022/07/09 11:23:06;;;;;;;4.83;2.47;;;19.40;99.90;;;;;;5093582;28;20467;-46
2022/07/09 11:25:33;;;;;;;3.93;2.30;;;19.50;99.90;;;;;;5093476;28;20496;-46
2022/07/09 11:28:01;;;;;;;6.13;1.90;;;19.70;99.90;;;;;;5093077;28;20467;-51
2022/07/09 11:30:30;;;;;;;3.10;1.97;;;19.80;99.90;;;;;;5093066;28;20423;-46
2022/07/09 11:32:57;;;;;;;3.43;2.40;;;19.90;99.90;;;;;;5093104;28;20462;-48
2022/07/09 11:35:26;;;;;;;3.40;2.50;;;20.00;99.90;;;;;;5093040;28;20495;-46
2022/07/09 11:37:53;;;;;;;4.13;2.00;;;20.10;99.90;;;;;;5093336;28;20451;-53
2022/07/09 11:40:21;;;;;;;2.23;1.87;;;20.20;99.90;;;;;;5092971;28;20493;-47
2022/07/09 11:42:49;;;;;;;1.67;1.57;;;20.20;99.90;;;;;;5093033;28;20519;-47
2022/07/09 11:45:20;;;;;;;2.60;1.07;;;20.10;99.90;;;;;;5092862;28;20520;-47
2022/07/09 11:47:49;;;;;;;2.40;1.73;;;20.30;99.90;;;;;;5093041;28;20438;-46
2022/07/09 11:50:19;;;;;;;2.10;1.57;;;20.40;99.90;;;;;;5092800;28;20984;-47
2022/07/09 11:52:48;;;;;;;2.17;1.97;;;20.40;99.90;;;;;;5092983;28;20438;-48
2022/07/09 11:55:17;;;;;;;2.03;1.70;;;20.40;99.90;;;;;;5092721;28;20487;-44
2022/07/09 11:57:55;;;;;;;2.80;1.90;;;20.50;99.90;;;;;;5092748;28;20435;-48
2022/07/09 12:00:23;;;;;;;2.13;1.73;;;20.50;99.90;;;;;;5092719;28;20443;-48
2022/07/09 12:02:52;;;;;;;2.47;1.80;;;20.50;99.90;;;;;;5092902;28;20439;-52
2022/07/09 12:05:29;;;;;;;2.17;1.67;;;20.60;99.90;;;;;;5092466;28;21013;-47
2022/07/09 12:07:56;;;;;;;2.63;1.53;;;20.50;99.90;;;;;;5092537;28;20509;-48
2022/07/09 12:10:29;;;;;;;2.43;1.80;;;20.60;99.90;;;;;;5092458;28;20439;-47
2022/07/09 12:12:56;;;;;;;2.30;1.47;;;20.60;99.90;;;;;;5092567;28;20432;-47
2022/07/09 12:15:23;;;;;;;2.70;1.20;;;20.70;99.90;;;;;;5092536;28;20467;-47
2022/07/09 12:17:55;;;;;;;1.90;1.23;;;20.70;99.90;;;;;;5092635;28;20924;-50
2022/07/09 12:20:23;;;;;;;2.40;1.10;;;20.70;99.90;;;;;;5092456;28;20443;-46
2022/07/09 12:22:51;;;;;;;2.73;1.40;;;20.70;99.90;;;;;;5092506;28;20477;-46
2022/07/09 12:25:19;;;;;;;1.30;1.00;;;20.80;99.90;;;;;;5090959;28;20540;-48
2022/07/09 12:27:46;;;;;;;2.20;1.80;;;20.80;99.90;;;;;;5092163;28;20789;-47
2022/07/09 12:30:14;;;;;;;1.73;1.50;;;20.80;99.90;;;;;;5091835;28;20516;-46
2022/07/09 12:32:41;;;;;;;2.20;1.23;;;20.80;99.90;;;;;;5091746;28;20730;-47
2022/07/09 12:35:10;;;;;;;3.97;1.70;;;20.80;99.90;;;;;;5092138;28;20483;-48
2022/07/09 12:37:38;;;;;;;13.63;3.20;;;20.90;99.90;;;;;;5091915;28;21020;-46
2022/07/09 12:40:07;;;;;;;2.27;1.23;;;20.90;99.90;;;;;;5091850;28;20444;-51
2022/07/09 12:42:34;;;;;;;1.73;1.30;;;21.00;99.90;;;;;;5091980;28;20509;-46
2022/07/09 12:45:01;;;;;;;4.33;1.60;;;21.20;99.90;;;;;;5091845;28;20883;-48
2022/07/09 12:47:29;;;;;;;31.47;5.23;;;21.40;99.90;;;;;;5091293;28;20432;-46
2022/07/09 12:49:56;;;;;;;11.37;2.03;;;21.40;99.90;;;;;;5071198;28;20816;-48